createdAt,value
2017-09-26T00:00:15.741Z,1017.3
2017-09-26T00:01:18.130Z,1017.3
2017-09-26T00:02:20.521Z,1017.3
2017-09-26T00:03:23.248Z,1017.3
2017-09-26T00:04:25.646Z,1017.3
2017-09-26T00:05:28.051Z,1017.3
2017-09-26T00:06:30.439Z,1017.3
2017-09-26T00:07:32.844Z,1017.3
2017-09-26T00:08:35.239Z,1017.3
2017-09-26T00:09:37.634Z,1017.3
2017-09-26T00:10:40.035Z,1017.3
2017-09-26T00:11:42.433Z,1017.3
2017-09-26T00:12:44.820Z,1017.3
2017-09-26T00:13:47.228Z,1017.3
2017-09-26T00:14:49.946Z,1017.3
2017-09-26T00:15:52.360Z,1017.3
2017-09-26T00:16:54.742Z,1017.3
2017-09-26T00:17:57.128Z,1017.3
2017-09-26T00:18:59.526Z,1017.3
2017-09-26T00:20:01.924Z,1017.3
2017-09-26T00:21:04.318Z,1017.4
2017-09-26T00:22:06.722Z,1017.3
2017-09-26T00:23:09.133Z,1017.3
2017-09-26T00:24:11.525Z,1017.3
2017-09-26T00:25:13.964Z,1017.3
2017-09-26T00:26:16.340Z,1017.3
2017-09-26T00:27:18.741Z,1017.3
2017-09-26T00:28:21.493Z,1017.3
2017-09-26T00:29:23.894Z,1017.3
2017-09-26T00:30:26.297Z,1017.3
2017-09-26T00:31:28.710Z,1017.3
2017-09-26T00:32:31.111Z,1017.4
2017-09-26T00:33:33.516Z,1017.4
2017-09-26T00:34:35.921Z,1017.4
2017-09-26T00:35:38.684Z,1017.4
2017-09-26T00:36:41.082Z,1017.4
2017-09-26T00:37:43.486Z,1017.3
2017-09-26T00:38:46.240Z,1017.3
2017-09-26T00:39:48.648Z,1017.3
2017-09-26T00:40:51.043Z,1017.3
2017-09-26T00:41:53.448Z,1017.3
2017-09-26T00:42:55.846Z,1017.3
2017-09-26T00:43:58.239Z,1017.3
2017-09-26T00:45:00.635Z,1017.3
2017-09-26T00:46:03.364Z,1017.4
2017-09-26T00:47:05.752Z,1017.3
2017-09-26T00:48:08.163Z,1017.3
2017-09-26T00:49:10.561Z,1017.3
2017-09-26T00:50:12.960Z,1017.3
2017-09-26T00:51:15.363Z,1017.2
2017-09-26T00:52:17.761Z,1017.3
2017-09-26T00:53:20.161Z,1017.3
2017-09-26T00:54:22.558Z,1017.3
2017-09-26T00:55:24.954Z,1017.3
2017-09-26T00:56:27.351Z,1017.3
2017-09-26T00:57:29.747Z,1017.3
2017-09-26T00:58:32.136Z,1017.3
2017-09-26T00:59:34.535Z,1017.3
2017-09-26T01:00:36.930Z,1017.3
2017-09-26T01:01:39.323Z,1017.3
2017-09-26T01:02:41.723Z,1017.3
2017-09-26T01:03:44.126Z,1017.3
2017-09-26T01:04:46.861Z,1017.3
2017-09-26T01:05:49.255Z,1017.3
2017-09-26T01:06:51.659Z,1017.3
2017-09-26T01:07:54.394Z,1017.3
2017-09-26T01:08:56.789Z,1017.3
2017-09-26T01:09:59.189Z,1017.3
2017-09-26T01:11:01.585Z,1017.4
2017-09-26T01:12:03.975Z,1017.4
2017-09-26T01:13:06.371Z,1017.4
2017-09-26T01:14:08.767Z,1017.4
2017-09-26T01:15:11.160Z,1017.3
2017-09-26T01:16:13.890Z,1017.3
2017-09-26T01:17:16.285Z,1017.3
2017-09-26T01:18:18.680Z,1017.4
2017-09-26T01:19:21.420Z,1017.4
2017-09-26T01:20:23.818Z,1017.4
2017-09-26T01:21:26.552Z,1017.4
2017-09-26T01:22:28.958Z,1017.3
2017-09-26T01:23:31.345Z,1017.4
2017-09-26T01:24:33.742Z,1017.4
2017-09-26T01:25:36.136Z,1017.4
2017-09-26T01:26:38.888Z,1017.3
2017-09-26T01:27:41.644Z,1017.4
2017-09-26T01:28:44.380Z,1017.4
2017-09-26T01:29:46.773Z,1017.4
2017-09-26T01:30:49.173Z,1017.4
2017-09-26T01:31:51.934Z,1017.3
2017-09-26T01:32:54.328Z,1017.3
2017-09-26T01:33:56.723Z,1017.4
2017-09-26T01:34:59.115Z,1017.3
2017-09-26T01:36:01.502Z,1017.4
2017-09-26T01:37:03.904Z,1017.4
2017-09-26T01:38:06.645Z,1017.4
2017-09-26T01:39:09.382Z,1017.4
2017-09-26T01:40:11.770Z,1017.4
2017-09-26T01:41:14.179Z,1017.4
2017-09-26T01:42:16.578Z,1017.4
2017-09-26T01:43:18.981Z,1017.4
2017-09-26T01:44:21.379Z,1017.4
2017-09-26T01:45:24.121Z,1017.4
2017-09-26T01:46:26.513Z,1017.3
2017-09-26T01:47:28.916Z,1017.4
2017-09-26T01:48:31.306Z,1017.4
2017-09-26T01:49:34.050Z,1017.4
2017-09-26T01:50:36.439Z,1017.4
2017-09-26T01:51:38.841Z,1017.4
2017-09-26T01:52:41.239Z,1017.4
2017-09-26T01:53:43.634Z,1017.4
2017-09-26T01:54:46.020Z,1017.4
2017-09-26T01:55:48.411Z,1017.4
2017-09-26T01:56:50.819Z,1017.4
2017-09-26T01:57:53.899Z,1017.4
2017-09-26T01:58:56.663Z,1017.4
2017-09-26T01:59:59.054Z,1017.4
2017-09-26T02:01:01.450Z,1017.4
2017-09-26T02:02:04.209Z,1017.4
2017-09-26T02:03:06.609Z,1017.4
2017-09-26T02:04:08.995Z,1017.4
2017-09-26T02:05:11.397Z,1017.4
2017-09-26T02:06:13.786Z,1017.5
2017-09-26T02:07:16.185Z,1017.4
2017-09-26T02:08:18.581Z,1017.4
2017-09-26T02:09:20.981Z,1017.4
2017-09-26T02:10:23.381Z,1017.4
2017-09-26T02:11:25.774Z,1017.4
2017-09-26T02:12:28.856Z,1017.4
2017-09-26T02:13:31.248Z,1017.4
2017-09-26T02:14:33.645Z,1017.4
2017-09-26T02:15:36.043Z,1017.4
2017-09-26T02:16:38.441Z,1017.5
2017-09-26T02:17:40.838Z,1017.4
2017-09-26T02:18:43.233Z,1017.5
2017-09-26T02:19:45.630Z,1017.4
2017-09-26T02:20:48.029Z,1017.4
2017-09-26T02:21:50.420Z,1017.4
2017-09-26T02:22:52.819Z,1017.4
2017-09-26T02:23:55.574Z,1017.5
2017-09-26T02:24:57.973Z,1017.5
2017-09-26T02:26:00.707Z,1017.5
2017-09-26T02:27:03.441Z,1017.5
2017-09-26T02:28:05.836Z,1017.5
2017-09-26T02:29:08.237Z,1017.5
2017-09-26T02:30:10.635Z,1017.5
2017-09-26T02:31:13.028Z,1017.5
2017-09-26T02:32:15.764Z,1017.4
2017-09-26T02:33:18.157Z,1017.5
2017-09-26T02:34:20.549Z,1017.4
2017-09-26T02:35:22.946Z,1017.4
2017-09-26T02:36:25.346Z,1017.5
2017-09-26T02:37:27.742Z,1017.5
2017-09-26T02:38:30.148Z,1017.5
2017-09-26T02:39:32.541Z,1017.4
2017-09-26T02:40:35.274Z,1017.4
2017-09-26T02:41:38.010Z,1017.5
2017-09-26T02:42:40.403Z,1017.4
2017-09-26T02:43:42.796Z,1017.5
2017-09-26T02:44:45.193Z,1017.5
2017-09-26T02:45:47.580Z,1017.4
2017-09-26T02:46:50.326Z,1017.5
2017-09-26T02:47:52.723Z,1017.5
2017-09-26T02:48:55.120Z,1017.5
2017-09-26T02:49:57.512Z,1017.5
2017-09-26T02:50:59.906Z,1017.5
2017-09-26T02:52:02.304Z,1017.5
2017-09-26T02:53:04.708Z,1017.5
2017-09-26T02:54:07.448Z,1017.5
2017-09-26T02:55:09.848Z,1017.5
2017-09-26T02:56:12.238Z,1017.4
2017-09-26T02:57:14.635Z,1017.4
2017-09-26T02:58:17.070Z,1017.5
2017-09-26T02:59:19.803Z,1017.5
2017-09-26T03:00:22.196Z,1017.4
2017-09-26T03:01:24.600Z,1017.4
2017-09-26T03:02:27.338Z,1017.5
2017-09-26T03:03:29.727Z,1017.5
2017-09-26T03:04:32.120Z,1017.5
2017-09-26T03:05:34.520Z,1017.5
2017-09-26T03:06:36.911Z,1017.5
2017-09-26T03:07:39.310Z,1017.5
2017-09-26T03:08:41.717Z,1017.5
2017-09-26T03:09:44.113Z,1017.5
2017-09-26T03:10:46.501Z,1017.5
2017-09-26T03:11:48.907Z,1017.5
2017-09-26T03:12:51.652Z,1017.5
2017-09-26T03:13:54.398Z,1017.5
2017-09-26T03:14:56.790Z,1017.5
2017-09-26T03:15:59.186Z,1017.5
2017-09-26T03:17:01.919Z,1017.5
2017-09-26T03:18:04.324Z,1017.5
2017-09-26T03:19:06.716Z,1017.5
2017-09-26T03:20:09.111Z,1017.5
2017-09-26T03:21:11.504Z,1017.4
2017-09-26T03:22:13.905Z,1017.5
2017-09-26T03:23:16.304Z,1017.5
2017-09-26T03:24:18.702Z,1017.5
2017-09-26T03:25:21.087Z,1017.5
2017-09-26T03:26:23.834Z,1017.5
2017-09-26T03:27:26.224Z,1017.5
2017-09-26T03:28:28.624Z,1017.5
2017-09-26T03:29:31.356Z,1017.5
2017-09-26T03:30:33.750Z,1017.5
2017-09-26T03:31:36.140Z,1017.5
2017-09-26T03:32:38.544Z,1017.5
2017-09-26T03:33:40.945Z,1017.5
2017-09-26T03:34:43.334Z,1017.6
2017-09-26T03:35:45.733Z,1017.5
2017-09-26T03:36:48.139Z,1017.6
2017-09-26T03:37:50.530Z,1017.6
2017-09-26T03:38:52.926Z,1017.6
2017-09-26T03:39:55.326Z,1017.6
2017-09-26T03:40:57.720Z,1017.6
2017-09-26T03:42:00.477Z,1017.6
2017-09-26T03:43:02.875Z,1017.6
2017-09-26T03:44:05.258Z,1017.6
2017-09-26T03:45:07.654Z,1017.6
2017-09-26T03:46:10.048Z,1017.6
2017-09-26T03:47:12.442Z,1017.6
2017-09-26T03:48:14.838Z,1017.6
2017-09-26T03:49:17.229Z,1017.6
2017-09-26T03:50:19.621Z,1017.6
2017-09-26T03:51:22.032Z,1017.6
2017-09-26T03:52:24.429Z,1017.7
2017-09-26T03:53:26.824Z,1017.7
2017-09-26T03:54:29.562Z,1017.7
2017-09-26T03:55:31.958Z,1017.6
2017-09-26T03:56:34.353Z,1017.6
2017-09-26T03:57:36.748Z,1017.6
2017-09-26T03:58:39.138Z,1017.5
2017-09-26T03:59:41.873Z,1017.5
2017-09-26T04:00:44.272Z,1017.5
2017-09-26T04:01:46.663Z,1017.6
2017-09-26T04:02:49.052Z,1017.6
2017-09-26T04:03:51.447Z,1017.6
2017-09-26T04:04:53.848Z,1017.7
2017-09-26T04:05:56.242Z,1017.6
2017-09-26T04:06:58.981Z,1017.7
2017-09-26T04:08:01.365Z,1017.6
2017-09-26T04:09:03.760Z,1017.6
2017-09-26T04:10:06.170Z,1017.6
2017-09-26T04:11:08.560Z,1017.6
2017-09-26T04:12:10.957Z,1017.6
2017-09-26T04:13:13.348Z,1017.7
2017-09-26T04:14:15.739Z,1017.6
2017-09-26T04:15:18.142Z,1017.6
2017-09-26T04:16:21.215Z,1017.6
2017-09-26T04:17:23.606Z,1017.5
2017-09-26T04:18:26.008Z,1017.6
2017-09-26T04:19:28.806Z,1017.6
2017-09-26T04:20:31.206Z,1017.6
2017-09-26T04:21:33.604Z,1017.6
2017-09-26T04:22:36.346Z,1017.6
2017-09-26T04:23:39.090Z,1017.6
2017-09-26T04:24:41.493Z,1017.6
2017-09-26T04:25:43.878Z,1017.6
2017-09-26T04:26:46.268Z,1017.7
2017-09-26T04:27:48.997Z,1017.7
2017-09-26T04:28:51.389Z,1017.6
2017-09-26T04:29:53.791Z,1017.6
2017-09-26T04:30:56.186Z,1017.6
2017-09-26T04:31:58.911Z,1017.6
2017-09-26T04:33:01.309Z,1017.6
2017-09-26T04:34:03.706Z,1017.6
2017-09-26T04:35:06.105Z,1017.6
2017-09-26T04:36:08.492Z,1017.6
2017-09-26T04:37:10.893Z,1017.7
2017-09-26T04:38:13.284Z,1017.7
2017-09-26T04:39:16.022Z,1017.6
2017-09-26T04:40:18.421Z,1017.6
2017-09-26T04:41:20.817Z,1017.6
2017-09-26T04:42:23.210Z,1017.6
2017-09-26T04:43:25.615Z,1017.7
2017-09-26T04:44:28.014Z,1017.6
2017-09-26T04:45:30.402Z,1017.6
2017-09-26T04:46:32.802Z,1017.6
2017-09-26T04:47:35.196Z,1017.6
2017-09-26T04:48:37.589Z,1017.6
2017-09-26T04:49:39.995Z,1017.6
2017-09-26T04:50:42.387Z,1017.6
2017-09-26T04:51:44.782Z,1017.6
2017-09-26T04:52:47.213Z,1017.7
2017-09-26T04:53:49.573Z,1017.7
2017-09-26T04:54:51.970Z,1017.7
2017-09-26T04:55:54.367Z,1017.7
2017-09-26T04:56:56.753Z,1017.7
2017-09-26T04:57:59.162Z,1017.7
2017-09-26T04:59:01.561Z,1017.7
2017-09-26T05:00:03.955Z,1017.7
2017-09-26T05:01:06.355Z,1017.7
2017-09-26T05:02:08.747Z,1017.7
2017-09-26T05:03:11.484Z,1017.7
2017-09-26T05:04:13.882Z,1017.7
2017-09-26T05:05:16.276Z,1017.7
2017-09-26T05:06:18.676Z,1017.8
2017-09-26T05:07:21.060Z,1017.8
2017-09-26T05:08:23.460Z,1017.7
2017-09-26T05:09:25.859Z,1017.8
2017-09-26T05:10:28.286Z,1017.8
2017-09-26T05:11:30.993Z,1017.8
2017-09-26T05:12:33.388Z,1017.8
2017-09-26T05:13:35.789Z,1017.8
2017-09-26T05:14:38.172Z,1017.8
2017-09-26T05:15:40.566Z,1017.8
2017-09-26T05:16:42.962Z,1017.8
2017-09-26T05:17:45.359Z,1017.9
2017-09-26T05:18:47.755Z,1017.9
2017-09-26T05:19:50.151Z,1017.8
2017-09-26T05:20:52.545Z,1017.9
2017-09-26T05:21:54.937Z,1017.8
2017-09-26T05:22:57.330Z,1017.9
2017-09-26T05:23:59.726Z,1017.8
2017-09-26T05:25:02.125Z,1017.9
2017-09-26T05:26:04.854Z,1017.9
2017-09-26T05:27:07.250Z,1018
2017-09-26T05:28:09.646Z,1018
2017-09-26T05:29:12.408Z,1018
2017-09-26T05:30:15.140Z,1018
2017-09-26T05:31:17.540Z,1017.9
2017-09-26T05:32:19.929Z,1017.9
2017-09-26T05:33:22.336Z,1018
2017-09-26T05:34:25.069Z,1018
2017-09-26T05:35:27.485Z,1018
2017-09-26T05:36:29.884Z,1017.9
2017-09-26T05:37:32.627Z,1017.9
2017-09-26T05:38:35.019Z,1017.9
2017-09-26T05:39:37.419Z,1018
2017-09-26T05:40:39.807Z,1018
2017-09-26T05:41:42.197Z,1018
2017-09-26T05:42:44.599Z,1018
2017-09-26T05:43:46.992Z,1018
2017-09-26T05:44:49.733Z,1018
2017-09-26T05:45:52.474Z,1018
2017-09-26T05:46:54.864Z,1018
2017-09-26T05:47:57.610Z,1018
2017-09-26T05:49:00.343Z,1018
2017-09-26T05:50:02.734Z,1018
2017-09-26T05:51:05.123Z,1018.1
2017-09-26T05:52:07.517Z,1018
2017-09-26T05:53:09.913Z,1018
2017-09-26T05:54:12.319Z,1018.1
2017-09-26T05:55:14.701Z,1018.1
2017-09-26T05:56:17.103Z,1018.1
2017-09-26T05:57:19.501Z,1018.1
2017-09-26T05:58:22.254Z,1018.1
2017-09-26T05:59:24.654Z,1018.2
2017-09-26T06:00:27.390Z,1018.2
2017-09-26T06:01:29.783Z,1018.2
2017-09-26T06:02:32.179Z,1018.2
2017-09-26T06:03:34.566Z,1018.2
2017-09-26T06:04:36.963Z,1018.2
2017-09-26T06:05:39.361Z,1018.2
2017-09-26T06:06:41.762Z,1018.2
2017-09-26T06:07:44.158Z,1018.3
2017-09-26T06:08:46.556Z,1018.2
2017-09-26T06:09:49.287Z,1018.3
2017-09-26T06:10:51.686Z,1018.3
2017-09-26T06:11:54.437Z,1018.3
2017-09-26T06:12:56.974Z,1018.3
2017-09-26T06:13:59.360Z,1018.3
2017-09-26T06:15:01.783Z,1018.3
2017-09-26T06:16:04.172Z,1018.4
2017-09-26T06:17:06.569Z,1018.4
2017-09-26T06:18:08.963Z,1018.4
2017-09-26T06:19:11.357Z,1018.4
2017-09-26T06:20:13.753Z,1018.4
2017-09-26T06:21:16.494Z,1018.4
2017-09-26T06:22:18.896Z,1018.4
2017-09-26T06:23:21.281Z,1018.4
2017-09-26T06:24:24.361Z,1018.4
2017-09-26T06:25:26.755Z,1018.4
2017-09-26T06:26:29.158Z,1018.5
2017-09-26T06:27:31.552Z,1018.4
2017-09-26T06:28:33.944Z,1018.4
2017-09-26T06:29:36.347Z,1018.5
2017-09-26T06:30:38.752Z,1018.5
2017-09-26T06:31:41.147Z,1018.5
2017-09-26T06:32:43.876Z,1018.4
2017-09-26T06:33:46.278Z,1018.5
2017-09-26T06:34:48.710Z,1018.4
2017-09-26T06:35:51.093Z,1018.5
2017-09-26T06:36:53.489Z,1018.5
2017-09-26T06:37:56.925Z,1018.5
2017-09-26T06:38:59.321Z,1018.5
2017-09-26T06:40:02.057Z,1018.5
2017-09-26T06:41:04.449Z,1018.5
2017-09-26T06:42:06.852Z,1018.5
2017-09-26T06:43:09.252Z,1018.5
2017-09-26T06:44:11.989Z,1018.5
2017-09-26T06:45:14.369Z,1018.6
2017-09-26T06:46:16.778Z,1018.6
2017-09-26T06:47:19.174Z,1018.6
2017-09-26T06:48:21.574Z,1018.5
2017-09-26T06:49:23.980Z,1018.6
2017-09-26T06:50:26.374Z,1018.5
2017-09-26T06:51:28.776Z,1018.6
2017-09-26T06:52:31.176Z,1018.6
2017-09-26T06:53:33.566Z,1018.6
2017-09-26T06:54:35.990Z,1018.5
2017-09-26T06:55:38.388Z,1018.6
2017-09-26T06:56:40.751Z,1018.7
2017-09-26T06:57:43.149Z,1018.7
2017-09-26T06:58:45.555Z,1018.7
2017-09-26T06:59:47.945Z,1018.6
2017-09-26T07:00:50.339Z,1018.6
2017-09-26T07:01:52.864Z,1018.6
2017-09-26T07:02:55.829Z,1018.7
2017-09-26T07:03:58.219Z,1018.7
2017-09-26T07:05:00.613Z,1018.7
2017-09-26T07:06:03.007Z,1018.7
2017-09-26T07:07:05.398Z,1018.6
2017-09-26T07:08:07.795Z,1018.6
2017-09-26T07:09:10.187Z,1018.7
2017-09-26T07:10:12.581Z,1018.7
2017-09-26T07:11:15.329Z,1018.7
2017-09-26T07:12:18.067Z,1018.7
2017-09-26T07:13:20.819Z,1018.7
2017-09-26T07:14:23.216Z,1018.7
2017-09-26T07:15:25.610Z,1018.7
2017-09-26T07:16:28.018Z,1018.7
2017-09-26T07:17:30.464Z,1018.7
2017-09-26T07:18:32.886Z,1018.8
2017-09-26T07:19:35.288Z,1018.8
2017-09-26T07:20:37.699Z,1018.8
2017-09-26T07:21:40.101Z,1018.8
2017-09-26T07:22:42.501Z,1018.8
2017-09-26T07:23:44.977Z,1018.7
2017-09-26T07:24:47.569Z,1018.7
2017-09-26T07:25:50.369Z,1018.7
2017-09-26T07:26:52.823Z,1018.7
2017-09-26T07:27:55.564Z,1018.7
2017-09-26T07:28:58.029Z,1018.7
2017-09-26T07:30:00.424Z,1018.7
2017-09-26T07:31:02.819Z,1018.8
2017-09-26T07:32:05.275Z,1018.7
2017-09-26T07:33:07.687Z,1018.8
2017-09-26T07:34:10.186Z,1018.8
2017-09-26T07:35:12.594Z,1018.8
2017-09-26T07:36:14.993Z,1018.8
2017-09-26T07:37:17.802Z,1018.8
2017-09-26T07:38:20.203Z,1018.8
2017-09-26T07:39:22.606Z,1018.8
2017-09-26T07:40:25.059Z,1018.9
2017-09-26T07:41:27.467Z,1018.8
2017-09-26T07:42:29.978Z,1018.9
2017-09-26T07:43:32.380Z,1018.9
2017-09-26T07:44:35.112Z,1018.9
2017-09-26T07:45:37.980Z,1018.9
2017-09-26T07:46:40.364Z,1018.8
2017-09-26T07:47:42.764Z,1018.8
2017-09-26T07:48:45.215Z,1018.8
2017-09-26T07:49:47.616Z,1018.9
2017-09-26T07:50:50.052Z,1018.9
2017-09-26T07:51:52.448Z,1018.9
2017-09-26T07:52:54.844Z,1018.8
2017-09-26T07:53:57.290Z,1018.9
2017-09-26T07:54:59.691Z,1018.9
2017-09-26T07:56:02.118Z,1018.9
2017-09-26T07:57:04.516Z,1018.9
2017-09-26T07:58:07.252Z,1018.9
2017-09-26T07:59:09.686Z,1019
2017-09-26T08:00:12.123Z,1019
2017-09-26T08:01:14.523Z,1019
2017-09-26T08:02:16.955Z,1018.9
2017-09-26T08:03:19.357Z,1019
2017-09-26T08:04:21.788Z,1018.9
2017-09-26T08:05:24.189Z,1018.9
2017-09-26T08:06:26.589Z,1019
2017-09-26T08:07:28.982Z,1018.9
2017-09-26T08:08:31.373Z,1019
2017-09-26T08:09:33.777Z,1019
2017-09-26T08:10:36.168Z,1019
2017-09-26T08:11:38.568Z,1019
2017-09-26T08:12:40.970Z,1019
2017-09-26T08:13:43.698Z,1019
2017-09-26T08:14:46.095Z,1019
2017-09-26T08:15:48.492Z,1019
2017-09-26T08:16:50.881Z,1019
2017-09-26T08:17:53.280Z,1019
2017-09-26T08:18:55.680Z,1019.1
2017-09-26T08:19:58.069Z,1019
2017-09-26T08:21:00.473Z,1019
2017-09-26T08:22:03.210Z,1019.1
2017-09-26T08:23:05.603Z,1019.1
2017-09-26T08:24:08.000Z,1019.1
2017-09-26T08:25:10.395Z,1019.1
2017-09-26T08:26:12.786Z,1019.1
2017-09-26T08:27:15.203Z,1019.1
2017-09-26T08:28:17.935Z,1019.1
2017-09-26T08:29:20.321Z,1019.1
2017-09-26T08:30:23.061Z,1019.1
2017-09-26T08:31:25.445Z,1019.1
2017-09-26T08:32:27.846Z,1019.1
2017-09-26T08:33:30.260Z,1019.1
2017-09-26T08:34:32.676Z,1019.2
2017-09-26T08:35:35.077Z,1019.2
2017-09-26T08:36:37.490Z,1019.2
2017-09-26T08:37:39.882Z,1019.2
2017-09-26T08:38:42.285Z,1019.2
2017-09-26T08:39:44.718Z,1019.2
2017-09-26T08:40:47.790Z,1019.1
2017-09-26T08:41:50.195Z,1019.1
2017-09-26T08:42:52.624Z,1019.1
2017-09-26T08:43:55.033Z,1019.1
2017-09-26T08:44:57.456Z,1019.1
2017-09-26T08:45:59.854Z,1019.1
2017-09-26T08:47:02.253Z,1019.2
2017-09-26T08:48:04.658Z,1019.2
2017-09-26T08:49:07.066Z,1019.2
2017-09-26T08:50:09.548Z,1019.2
2017-09-26T08:51:12.293Z,1019.2
2017-09-26T08:52:14.720Z,1019.2
2017-09-26T08:53:17.514Z,1019.2
2017-09-26T08:54:19.940Z,1019.2
2017-09-26T08:55:22.329Z,1019.2
2017-09-26T08:56:24.738Z,1019.2
2017-09-26T08:57:27.161Z,1019.3
2017-09-26T08:58:29.589Z,1019.3
2017-09-26T08:59:32.026Z,1019.3
2017-09-26T09:00:34.425Z,1019.3
2017-09-26T09:01:37.232Z,1019.3
2017-09-26T09:02:39.649Z,1019.3
2017-09-26T09:03:42.051Z,1019.3
2017-09-26T09:04:44.449Z,1019.3
2017-09-26T09:05:46.851Z,1019.3
2017-09-26T09:06:49.249Z,1019.3
2017-09-26T09:07:51.652Z,1019.3
2017-09-26T09:08:54.056Z,1019.2
2017-09-26T09:09:56.466Z,1019.2
2017-09-26T09:10:58.864Z,1019.2
2017-09-26T09:12:01.267Z,1019.2
2017-09-26T09:13:03.673Z,1019.2
2017-09-26T09:14:06.066Z,1019.2
2017-09-26T09:15:08.468Z,1019.2
2017-09-26T09:16:10.887Z,1019.2
2017-09-26T09:17:13.301Z,1019.2
2017-09-26T09:18:16.100Z,1019.2
2017-09-26T09:19:18.501Z,1019.2
2017-09-26T09:20:20.947Z,1019.1
2017-09-26T09:21:23.348Z,1019.2
2017-09-26T09:22:25.829Z,1019.1
2017-09-26T09:23:28.231Z,1019.2
2017-09-26T09:24:30.646Z,1019.2
2017-09-26T09:25:33.048Z,1019.2
2017-09-26T09:26:35.437Z,1019.2
2017-09-26T09:27:37.834Z,1019.2
2017-09-26T09:28:40.234Z,1019.2
2017-09-26T09:29:42.636Z,1019.1
2017-09-26T09:30:45.033Z,1019.2
2017-09-26T09:31:47.781Z,1019.2
2017-09-26T09:32:50.183Z,1019.2
2017-09-26T09:33:52.580Z,1019.3
2017-09-26T09:34:55.351Z,1019.2
2017-09-26T09:35:57.740Z,1019.3
2017-09-26T09:37:00.144Z,1019.3
2017-09-26T09:38:02.541Z,1019.3
2017-09-26T09:39:04.941Z,1019.3
2017-09-26T09:40:07.334Z,1019.3
2017-09-26T09:41:09.746Z,1019.3
2017-09-26T09:42:12.137Z,1019.3
2017-09-26T09:43:14.532Z,1019.3
2017-09-26T09:44:16.937Z,1019.3
2017-09-26T09:45:19.339Z,1019.3
2017-09-26T09:46:21.749Z,1019.3
2017-09-26T09:47:24.158Z,1019.3
2017-09-26T09:48:26.546Z,1019.2
2017-09-26T09:49:28.947Z,1019.3
2017-09-26T09:50:31.355Z,1019.3
2017-09-26T09:51:33.741Z,1019.3
2017-09-26T09:52:36.147Z,1019.3
2017-09-26T09:53:38.542Z,1019.3
2017-09-26T09:54:40.941Z,1019.3
2017-09-26T09:55:43.350Z,1019.3
2017-09-26T09:56:46.086Z,1019.3
2017-09-26T09:57:48.480Z,1019.3
2017-09-26T09:58:51.222Z,1019.4
2017-09-26T09:59:53.969Z,1019.3
2017-09-26T10:00:56.385Z,1019.4
2017-09-26T10:01:58.784Z,1019.4
2017-09-26T10:03:01.183Z,1019.4
2017-09-26T10:04:03.590Z,1019.4
2017-09-26T10:05:05.998Z,1019.4
2017-09-26T10:06:08.397Z,1019.4
2017-09-26T10:07:10.796Z,1019.4
2017-09-26T10:08:13.188Z,1019.4
2017-09-26T10:09:15.588Z,1019.3
2017-09-26T10:10:17.990Z,1019.4
2017-09-26T10:11:20.390Z,1019.4
2017-09-26T10:12:22.794Z,1019.3
2017-09-26T10:13:25.207Z,1019.3
2017-09-26T10:14:27.603Z,1019.3
2017-09-26T10:15:30.007Z,1019.3
2017-09-26T10:16:32.401Z,1019.3
2017-09-26T10:17:34.806Z,1019.3
2017-09-26T10:18:37.205Z,1019.4
2017-09-26T10:19:39.613Z,1019.3
2017-09-26T10:20:42.019Z,1019.4
2017-09-26T10:21:44.749Z,1019.3
2017-09-26T10:22:47.148Z,1019.3
2017-09-26T10:23:49.894Z,1019.3
2017-09-26T10:24:52.289Z,1019.3
2017-09-26T10:25:54.689Z,1019.3
2017-09-26T10:26:57.092Z,1019.3
2017-09-26T10:27:59.488Z,1019.3
2017-09-26T10:29:01.888Z,1019.3
2017-09-26T10:30:04.294Z,1019.3
2017-09-26T10:31:07.030Z,1019.3
2017-09-26T10:32:09.440Z,1019.3
2017-09-26T10:33:11.832Z,1019.3
2017-09-26T10:34:14.573Z,1019.3
2017-09-26T10:35:16.978Z,1019.3
2017-09-26T10:36:19.392Z,1019.3
2017-09-26T10:37:21.785Z,1019.3
2017-09-26T10:38:24.179Z,1019.3
2017-09-26T10:39:26.580Z,1019.3
2017-09-26T10:40:28.995Z,1019.3
2017-09-26T10:41:31.738Z,1019.3
2017-09-26T10:42:34.136Z,1019.3
2017-09-26T10:43:36.534Z,1019.3
2017-09-26T10:44:38.937Z,1019.3
2017-09-26T10:45:41.338Z,1019.3
2017-09-26T10:46:43.746Z,1019.3
2017-09-26T10:47:46.139Z,1019.4
2017-09-26T10:48:48.548Z,1019.4
2017-09-26T10:49:51.295Z,1019.3
2017-09-26T10:50:53.722Z,1019.3
2017-09-26T10:51:56.118Z,1019.3
2017-09-26T10:52:58.521Z,1019.4
2017-09-26T10:54:00.910Z,1019.4
2017-09-26T10:55:03.337Z,1019.4
2017-09-26T10:56:05.739Z,1019.4
2017-09-26T10:57:08.132Z,1019.4
2017-09-26T10:58:10.867Z,1019.4
2017-09-26T10:59:13.277Z,1019.4
2017-09-26T11:00:15.675Z,1019.5
2017-09-26T11:01:18.080Z,1019.4
2017-09-26T11:02:20.479Z,1019.4
2017-09-26T11:03:22.887Z,1019.5
2017-09-26T11:04:25.284Z,1019.5
2017-09-26T11:05:27.704Z,1019.5
2017-09-26T11:06:30.096Z,1019.5
2017-09-26T11:07:32.503Z,1019.5
2017-09-26T11:08:34.912Z,1019.5
2017-09-26T11:09:37.317Z,1019.5
2017-09-26T11:10:40.057Z,1019.4
2017-09-26T11:11:42.466Z,1019.5
2017-09-26T11:12:44.852Z,1019.5
2017-09-26T11:13:47.617Z,1019.5
2017-09-26T11:14:50.022Z,1019.4
2017-09-26T11:15:52.425Z,1019.4
2017-09-26T11:16:54.829Z,1019.4
2017-09-26T11:17:57.235Z,1019.4
2017-09-26T11:18:59.634Z,1019.4
2017-09-26T11:20:02.391Z,1019.4
2017-09-26T11:21:04.787Z,1019.4
2017-09-26T11:22:07.522Z,1019.4
2017-09-26T11:23:09.924Z,1019.3
2017-09-26T11:24:12.325Z,1019.3
2017-09-26T11:25:14.728Z,1019.3
2017-09-26T11:26:17.136Z,1019.3
2017-09-26T11:27:19.547Z,1019.3
2017-09-26T11:28:22.294Z,1019.3
2017-09-26T11:29:24.699Z,1019.3
2017-09-26T11:30:27.451Z,1019.3
2017-09-26T11:31:29.854Z,1019.3
2017-09-26T11:32:32.243Z,1019.3
2017-09-26T11:33:34.652Z,1019.3
2017-09-26T11:34:37.057Z,1019.3
2017-09-26T11:35:39.460Z,1019.3
2017-09-26T11:36:41.866Z,1019.3
2017-09-26T11:37:44.262Z,1019.3
2017-09-26T11:38:46.668Z,1019.3
2017-09-26T11:39:49.078Z,1019.4
2017-09-26T11:40:51.472Z,1019.4
2017-09-26T11:41:53.874Z,1019.3
2017-09-26T11:42:56.276Z,1019.3
2017-09-26T11:43:58.677Z,1019.3
2017-09-26T11:45:01.091Z,1019.3
2017-09-26T11:46:03.495Z,1019.3
2017-09-26T11:47:05.892Z,1019.3
2017-09-26T11:48:08.298Z,1019.3
2017-09-26T11:49:10.708Z,1019.3
2017-09-26T11:50:13.112Z,1019.3
2017-09-26T11:51:15.517Z,1019.3
2017-09-26T11:52:17.909Z,1019.3
2017-09-26T11:53:20.312Z,1019.3
2017-09-26T11:54:22.734Z,1019.3
2017-09-26T11:55:25.470Z,1019.3
2017-09-26T11:56:27.876Z,1019.3
2017-09-26T11:57:30.281Z,1019.3
2017-09-26T11:58:32.679Z,1019.3
2017-09-26T11:59:35.085Z,1019.3
2017-09-26T12:00:37.487Z,1019.3
2017-09-26T12:01:39.888Z,1019.3
2017-09-26T12:02:42.292Z,1019.3
2017-09-26T12:03:44.710Z,1019.3
2017-09-26T12:04:47.103Z,1019.2
2017-09-26T12:05:49.520Z,1019.2
2017-09-26T12:06:51.920Z,1019.2
2017-09-26T12:07:54.324Z,1019.2
2017-09-26T12:08:56.728Z,1019.2
2017-09-26T12:09:59.130Z,1019.2
2017-09-26T12:11:01.523Z,1019.2
2017-09-26T12:12:03.910Z,1019.2
2017-09-26T12:13:06.300Z,1019.2
2017-09-26T12:14:08.685Z,1019.3
2017-09-26T12:15:11.071Z,1019.3
2017-09-26T12:16:13.466Z,1019.2
2017-09-26T12:17:15.848Z,1019.2
2017-09-26T12:18:18.229Z,1019.2
2017-09-26T12:19:20.625Z,1019.2
2017-09-26T12:20:23.351Z,1019.3
2017-09-26T12:21:25.739Z,1019.2
2017-09-26T12:22:28.125Z,1019.2
2017-09-26T12:23:30.508Z,1019.2
2017-09-26T12:24:33.238Z,1019.3
2017-09-26T12:26:20.493Z,1019.2
2017-09-26T12:27:22.934Z,1019.2
2017-09-26T12:28:25.374Z,1019.2
2017-09-26T12:29:27.814Z,1019.2
2017-09-26T12:30:30.269Z,1019.3
2017-09-26T12:31:32.710Z,1019.3
2017-09-26T12:32:35.150Z,1019.3
2017-09-26T12:33:37.594Z,1019.3
2017-09-26T12:34:40.042Z,1019.2
2017-09-26T12:35:42.851Z,1019.2
2017-09-26T12:36:45.310Z,1019.2
2017-09-26T12:37:47.757Z,1019.2
2017-09-26T12:38:50.201Z,1019.2
2017-09-26T12:39:52.663Z,1019.2
2017-09-26T12:40:55.124Z,1019.2
2017-09-26T12:41:57.599Z,1019.2
2017-09-26T12:43:00.393Z,1019.2
2017-09-26T12:44:02.884Z,1019.1
2017-09-26T12:45:05.325Z,1019.2
2017-09-26T12:46:07.780Z,1019.1
2017-09-26T12:47:10.242Z,1019.1
2017-09-26T12:48:12.703Z,1019.1
2017-09-26T12:49:15.155Z,1019.1
2017-09-26T12:50:17.618Z,1019
2017-09-26T12:51:20.082Z,1019.1
2017-09-26T12:52:22.565Z,1019
2017-09-26T12:53:25.033Z,1019
2017-09-26T12:54:27.496Z,1019
2017-09-26T12:55:30.294Z,1019
2017-09-26T12:56:32.759Z,1019
2017-09-26T12:57:35.588Z,1019
2017-09-26T12:58:38.412Z,1019
2017-09-26T12:59:40.871Z,1019
2017-09-26T13:00:43.329Z,1019
2017-09-26T13:01:45.786Z,1019
2017-09-26T13:02:48.250Z,1019